sensor_id;sensor_type;location;lat;lon;timestamp;pressure;altitude;pressure_sealevel;temperature;humidity
71907;BME280;59781;52.090;5.030;2022-08-14T00:00:49;101228.88;;;22.95;48.57
71907;BME280;59781;52.090;5.030;2022-08-14T00:03:27;101231.75;;;22.88;48.91
71907;BME280;59781;52.090;5.030;2022-08-14T00:05:58;101220.03;;;22.93;52.02
71907;BME280;59781;52.090;5.030;2022-08-14T00:08:26;101223.16;;;22.85;53.63
71907;BME280;59781;52.090;5.030;2022-08-14T00:10:52;101221.78;;;23.11;48.93
71907;BME280;59781;52.090;5.030;2022-08-14T00:13:21;101211.44;;;23.18;47.80
71907;BME280;59781;52.090;5.030;2022-08-14T00:15:55;101217.31;;;23.22;47.49
71907;BME280;59781;52.090;5.030;2022-08-14T00:18:25;101220.84;;;23.05;47.81
71907;BME280;59781;52.090;5.030;2022-08-14T00:20:56;101211.88;;;22.98;48.46
71907;BME280;59781;52.090;5.030;2022-08-14T00:23:23;101207.81;;;23.01;47.86
71907;BME280;59781;52.090;5.030;2022-08-14T00:25:52;101202.63;;;22.87;48.78
71907;BME280;59781;52.090;5.030;2022-08-14T00:28:18;101192.56;;;22.93;47.72
71907;BME280;59781;52.090;5.030;2022-08-14T00:30:52;101189.53;;;23.06;47.42
71907;BME280;59781;52.090;5.030;2022-08-14T00:33:23;101189.84;;;22.93;48.11
71907;BME280;59781;52.090;5.030;2022-08-14T00:35:50;101189.91;;;22.98;48.26
71907;BME280;59781;52.090;5.030;2022-08-14T00:38:17;101182.69;;;23.09;47.42
71907;BME280;59781;52.090;5.030;2022-08-14T00:40:44;101180.31;;;23.12;47.95
71907;BME280;59781;52.090;5.030;2022-08-14T00:43:11;101179.75;;;23.27;47.14
71907;BME280;59781;52.090;5.030;2022-08-14T00:45:37;101169.56;;;23.11;48.86
71907;BME280;59781;52.090;5.030;2022-08-14T00:48:03;101170.84;;;22.92;48.64
71907;BME280;59781;52.090;5.030;2022-08-14T00:50:29;101169.09;;;22.74;49.29
71907;BME280;59781;52.090;5.030;2022-08-14T00:52:57;101166.72;;;22.66;50.03
71907;BME280;59781;52.090;5.030;2022-08-14T00:55:28;101171.16;;;22.55;52.86
71907;BME280;59781;52.090;5.030;2022-08-14T00:57:57;101160.94;;;22.39;51.59
71907;BME280;59781;52.090;5.030;2022-08-14T01:00:42;101160.94;;;22.39;51.27
71907;BME280;59781;52.090;5.030;2022-08-14T01:03:08;101156.25;;;22.51;52.10
71907;BME280;59781;52.090;5.030;2022-08-14T01:05:34;101158.78;;;22.41;51.58
71907;BME280;59781;52.090;5.030;2022-08-14T01:08:01;101156.75;;;22.36;51.01
71907;BME280;59781;52.090;5.030;2022-08-14T01:10:29;101157.97;;;22.28;51.81
71907;BME280;59781;52.090;5.030;2022-08-14T01:13:17;101147.72;;;22.12;52.66
71907;BME280;59781;52.090;5.030;2022-08-14T01:15:47;101145.84;;;22.13;53.22
71907;BME280;59781;52.090;5.030;2022-08-14T01:18:15;101145.09;;;22.17;52.91
71907;BME280;59781;52.090;5.030;2022-08-14T01:21:00;101147.00;;;22.28;51.80
71907;BME280;59781;52.090;5.030;2022-08-14T01:23:32;101136.81;;;22.52;50.67
71907;BME280;59781;52.090;5.030;2022-08-14T01:26:09;101131.81;;;22.78;50.25
71907;BME280;59781;52.090;5.030;2022-08-14T01:28:38;101131.09;;;22.82;50.26
71907;BME280;59781;52.090;5.030;2022-08-14T01:31:10;101118.44;;;22.81;50.30
71907;BME280;59781;52.090;5.030;2022-08-14T01:33:42;101120.50;;;23.03;49.74
71907;BME280;59781;52.090;5.030;2022-08-14T01:36:14;101127.50;;;22.94;49.95
71907;BME280;59781;52.090;5.030;2022-08-14T01:38:43;101123.22;;;22.86;50.32
71907;BME280;59781;52.090;5.030;2022-08-14T01:41:15;101126.47;;;23.00;50.03
71907;BME280;59781;52.090;5.030;2022-08-14T01:43:51;101114.25;;;23.07;49.62
71907;BME280;59781;52.090;5.030;2022-08-14T01:46:30;101118.16;;;22.95;50.32
71907;BME280;59781;52.090;5.030;2022-08-14T01:48:59;101110.56;;;22.85;50.11
71907;BME280;59781;52.090;5.030;2022-08-14T01:51:29;101108.19;;;22.77;50.52
71907;BME280;59781;52.090;5.030;2022-08-14T01:54:00;101107.66;;;22.51;51.44
71907;BME280;59781;52.090;5.030;2022-08-14T01:56:32;101102.31;;;22.85;50.52
71907;BME280;59781;52.090;5.030;2022-08-14T01:59:26;101102.59;;;22.72;51.24
71907;BME280;59781;52.090;5.030;2022-08-14T02:01:59;101104.25;;;22.44;52.67
71907;BME280;59781;52.090;5.030;2022-08-14T02:04:32;101098.78;;;22.61;52.01
71907;BME280;59781;52.090;5.030;2022-08-14T02:07:01;101093.84;;;22.46;52.37
71907;BME280;59781;52.090;5.030;2022-08-14T02:09:29;101097.28;;;22.53;52.34
71907;BME280;59781;52.090;5.030;2022-08-14T02:12:01;101101.28;;;22.74;51.32
71907;BME280;59781;52.090;5.030;2022-08-14T02:14:28;101098.16;;;22.71;51.37
71907;BME280;59781;52.090;5.030;2022-08-14T02:16:57;101096.03;;;22.73;51.58
71907;BME280;59781;52.090;5.030;2022-08-14T02:19:26;101094.84;;;22.69;51.11
71907;BME280;59781;52.090;5.030;2022-08-14T02:21:57;101091.75;;;22.65;51.64
71907;BME280;59781;52.090;5.030;2022-08-14T02:24:26;101085.63;;;22.75;51.41
71907;BME280;59781;52.090;5.030;2022-08-14T02:26:57;101089.59;;;22.67;51.65
71907;BME280;59781;52.090;5.030;2022-08-14T02:29:26;101092.28;;;22.79;51.26
71907;BME280;59781;52.090;5.030;2022-08-14T02:31:56;101090.88;;;22.76;51.30
71907;BME280;59781;52.090;5.030;2022-08-14T02:34:29;101092.59;;;22.66;51.72
71907;BME280;59781;52.090;5.030;2022-08-14T02:37:00;101084.88;;;22.51;51.79
71907;BME280;59781;52.090;5.030;2022-08-14T02:39:40;101080.44;;;22.21;52.71
71907;BME280;59781;52.090;5.030;2022-08-14T02:42:10;101086.13;;;22.43;52.10
71907;BME280;59781;52.090;5.030;2022-08-14T02:44:42;101085.56;;;22.18;53.21
71907;BME280;59781;52.090;5.030;2022-08-14T02:47:09;101088.44;;;22.23;53.44
71907;BME280;59781;52.090;5.030;2022-08-14T02:49:36;101080.94;;;22.07;53.86
71907;BME280;59781;52.090;5.030;2022-08-14T02:52:03;101085.28;;;22.31;52.65
71907;BME280;59781;52.090;5.030;2022-08-14T02:54:34;101077.22;;;22.24;53.47
71907;BME280;59781;52.090;5.030;2022-08-14T02:57:01;101087.38;;;22.12;53.38
71907;BME280;59781;52.090;5.030;2022-08-14T02:59:32;101078.44;;;21.93;54.17
71907;BME280;59781;52.090;5.030;2022-08-14T03:02:02;101076.88;;;21.97;54.11
71907;BME280;59781;52.090;5.030;2022-08-14T03:04:29;101066.97;;;21.96;54.12
71907;BME280;59781;52.090;5.030;2022-08-14T03:06:55;101068.91;;;21.84;54.87
71907;BME280;59781;52.090;5.030;2022-08-14T03:09:22;101070.44;;;21.80;54.72
71907;BME280;59781;52.090;5.030;2022-08-14T03:11:48;101072.13;;;21.69;55.70
71907;BME280;59781;52.090;5.030;2022-08-14T03:14:14;101072.13;;;21.81;54.97
71907;BME280;59781;52.090;5.030;2022-08-14T03:16:42;101064.59;;;21.88;54.51
71907;BME280;59781;52.090;5.030;2022-08-14T03:19:10;101060.78;;;21.89;54.59
71907;BME280;59781;52.090;5.030;2022-08-14T03:21:36;101056.03;;;21.61;55.55
71907;BME280;59781;52.090;5.030;2022-08-14T03:24:04;101055.94;;;21.56;56.19
71907;BME280;59781;52.090;5.030;2022-08-14T03:26:41;101056.63;;;21.87;54.81
71907;BME280;59781;52.090;5.030;2022-08-14T03:29:13;101059.25;;;21.82;54.85
71907;BME280;59781;52.090;5.030;2022-08-14T03:31:40;101054.16;;;21.73;55.70
71907;BME280;59781;52.090;5.030;2022-08-14T03:34:07;101055.34;;;21.66;55.23
71907;BME280;59781;52.090;5.030;2022-08-14T03:36:38;101048.66;;;21.50;56.55
71907;BME280;59781;52.090;5.030;2022-08-14T03:39:07;101058.66;;;21.68;55.26
71907;BME280;59781;52.090;5.030;2022-08-14T03:41:34;101045.06;;;21.61;56.21
71907;BME280;59781;52.090;5.030;2022-08-14T03:44:03;101050.22;;;21.46;56.06
71907;BME280;59781;52.090;5.030;2022-08-14T03:46:34;101052.81;;;21.29;57.83
71907;BME280;59781;52.090;5.030;2022-08-14T03:49:03;101051.97;;;21.52;56.24
71907;BME280;59781;52.090;5.030;2022-08-14T03:51:31;101044.84;;;21.51;56.24
71907;BME280;59781;52.090;5.030;2022-08-14T03:54:00;101047.97;;;21.55;56.19
71907;BME280;59781;52.090;5.030;2022-08-14T03:56:29;101051.88;;;21.59;55.96
71907;BME280;59781;52.090;5.030;2022-08-14T03:58:58;101045.09;;;21.38;56.92
71907;BME280;59781;52.090;5.030;2022-08-14T04:01:30;101041.75;;;21.36;57.20
71907;BME280;59781;52.090;5.030;2022-08-14T04:03:56;101040.19;;;21.28;57.57
71907;BME280;59781;52.090;5.030;2022-08-14T04:06:23;101041.28;;;21.27;57.75
71907;BME280;59781;52.090;5.030;2022-08-14T04:08:49;101033.25;;;21.26;57.16
71907;BME280;59781;52.090;5.030;2022-08-14T04:11:17;101036.44;;;21.23;57.63
71907;BME280;59781;52.090;5.030;2022-08-14T04:13:44;101035.63;;;21.22;57.60
71907;BME280;59781;52.090;5.030;2022-08-14T04:16:14;101036.63;;;21.28;57.58
71907;BME280;59781;52.090;5.030;2022-08-14T04:18:49;101036.97;;;21.31;57.50
71907;BME280;59781;52.090;5.030;2022-08-14T04:21:17;101042.56;;;21.25;58.73
71907;BME280;59781;52.090;5.030;2022-08-14T04:23:45;101040.19;;;21.40;57.09
71907;BME280;59781;52.090;5.030;2022-08-14T04:26:14;101035.53;;;21.29;57.48
71907;BME280;59781;52.090;5.030;2022-08-14T04:28:44;101033.50;;;21.24;57.76
71907;BME280;59781;52.090;5.030;2022-08-14T04:31:11;101035.94;;;21.02;58.70
71907;BME280;59781;52.090;5.030;2022-08-14T04:33:37;101029.28;;;20.98;58.90
71907;BME280;59781;52.090;5.030;2022-08-14T04:36:03;101040.41;;;21.15;58.43
71907;BME280;59781;52.090;5.030;2022-08-14T04:38:29;101035.59;;;20.99;58.81
71907;BME280;59781;52.090;5.030;2022-08-14T04:41:14;101041.09;;;21.10;58.51
71907;BME280;59781;52.090;5.030;2022-08-14T04:43:58;101033.22;;;21.02;58.80
71907;BME280;59781;52.090;5.030;2022-08-14T04:46:24;101027.78;;;21.14;58.84
71907;BME280;59781;52.090;5.030;2022-08-14T04:48:53;101024.50;;;20.94;58.54
71907;BME280;59781;52.090;5.030;2022-08-14T04:51:21;101025.22;;;20.89;59.35
71907;BME280;59781;52.090;5.030;2022-08-14T04:53:53;101027.34;;;20.45;60.51
71907;BME280;59781;52.090;5.030;2022-08-14T04:58:05;101020.03;;;20.39;61.51
71907;BME280;59781;52.090;5.030;2022-08-14T05:02:24;101016.63;;;20.44;60.87
71907;BME280;59781;52.090;5.030;2022-08-14T05:10:08;101016.06;;;20.53;60.78
71907;BME280;59781;52.090;5.030;2022-08-14T05:13:45;101016.50;;;20.80;59.90
71907;BME280;59781;52.090;5.030;2022-08-14T05:16:11;101015.44;;;20.81;59.93
71907;BME280;59781;52.090;5.030;2022-08-14T05:18:38;101005.06;;;20.83;59.43
71907;BME280;59781;52.090;5.030;2022-08-14T05:21:07;101011.28;;;20.90;59.66
71907;BME280;59781;52.090;5.030;2022-08-14T05:23:36;101002.75;;;21.10;58.90
71907;BME280;59781;52.090;5.030;2022-08-14T05:26:04;101002.75;;;21.22;59.29
71907;BME280;59781;52.090;5.030;2022-08-14T05:28:39;101000.50;;;21.07;59.23
71907;BME280;59781;52.090;5.030;2022-08-14T05:31:45;100993.69;;;21.22;58.63
71907;BME280;59781;52.090;5.030;2022-08-14T05:34:11;100997.78;;;21.31;59.03
71907;BME280;59781;52.090;5.030;2022-08-14T05:36:37;100996.94;;;21.42;58.58
71907;BME280;59781;52.090;5.030;2022-08-14T05:39:04;101001.97;;;21.45;58.38
71907;BME280;59781;52.090;5.030;2022-08-14T05:41:30;100990.75;;;21.58;57.40
71907;BME280;59781;52.090;5.030;2022-08-14T05:44:12;100995.50;;;21.51;57.71
71907;BME280;59781;52.090;5.030;2022-08-14T05:47:04;100997.31;;;21.57;57.33
71907;BME280;59781;52.090;5.030;2022-08-14T05:50:32;100988.13;;;21.63;57.58
71907;BME280;59781;52.090;5.030;2022-08-14T05:53:27;100992.50;;;21.76;57.26
71907;BME280;59781;52.090;5.030;2022-08-14T05:56:27;100991.03;;;21.97;57.62
71907;BME280;59781;52.090;5.030;2022-08-14T05:59:02;100990.59;;;22.28;56.44
71907;BME280;59781;52.090;5.030;2022-08-14T06:01:29;100988.91;;;22.27;56.28
71907;BME280;59781;52.090;5.030;2022-08-14T06:03:58;100982.97;;;22.47;55.27
71907;BME280;59781;52.090;5.030;2022-08-14T06:06:47;100986.75;;;22.29;56.11
71907;BME280;59781;52.090;5.030;2022-08-14T06:09:13;100981.25;;;22.58;55.55
71907;BME280;59781;52.090;5.030;2022-08-14T06:11:39;100970.13;;;22.65;55.75
71907;BME280;59781;52.090;5.030;2022-08-14T06:14:05;100976.34;;;22.60;55.33
71907;BME280;59781;52.090;5.030;2022-08-14T06:16:31;100975.22;;;22.73;54.80
71907;BME280;59781;52.090;5.030;2022-08-14T06:18:56;100978.75;;;22.85;54.50
71907;BME280;59781;52.090;5.030;2022-08-14T06:21:56;100978.41;;;22.98;53.74
71907;BME280;59781;52.090;5.030;2022-08-14T06:24:27;100975.91;;;23.13;54.24
71907;BME280;59781;52.090;5.030;2022-08-14T06:27:08;100987.31;;;23.22;53.57
71907;BME280;59781;52.090;5.030;2022-08-14T06:29:59;100991.25;;;23.65;52.79
71907;BME280;59781;52.090;5.030;2022-08-14T06:32:25;100987.94;;;24.07;51.62
71907;BME280;59781;52.090;5.030;2022-08-14T06:34:51;100988.47;;;23.82;52.18
71907;BME280;59781;52.090;5.030;2022-08-14T06:37:57;100991.78;;;23.45;52.56
71907;BME280;59781;52.090;5.030;2022-08-14T06:40:51;100983.91;;;23.92;52.17
71907;BME280;59781;52.090;5.030;2022-08-14T06:43:40;100990.69;;;23.63;52.30
71907;BME280;59781;52.090;5.030;2022-08-14T06:46:06;100985.06;;;23.74;51.71
71907;BME280;59781;52.090;5.030;2022-08-14T06:48:33;100985.84;;;23.70;52.00
71907;BME280;59781;52.090;5.030;2022-08-14T06:51:48;100984.53;;;23.78;51.69
71907;BME280;59781;52.090;5.030;2022-08-14T06:54:14;100977.44;;;24.03;52.13
71907;BME280;59781;52.090;5.030;2022-08-14T06:56:39;100978.34;;;23.87;51.86
71907;BME280;59781;52.090;5.030;2022-08-14T06:59:05;100970.56;;;24.28;51.30
71907;BME280;59781;52.090;5.030;2022-08-14T07:01:31;100964.81;;;24.29;51.27
71907;BME280;59781;52.090;5.030;2022-08-14T07:04:15;100963.50;;;24.59;50.87
71907;BME280;59781;52.090;5.030;2022-08-14T07:06:59;100971.66;;;24.27;52.41
71907;BME280;59781;52.090;5.030;2022-08-14T07:09:26;100972.03;;;24.36;52.77
71907;BME280;59781;52.090;5.030;2022-08-14T07:11:52;100971.13;;;24.52;50.66
71907;BME280;59781;52.090;5.030;2022-08-14T07:14:27;100972.56;;;24.92;50.24
71907;BME280;59781;52.090;5.030;2022-08-14T07:16:53;100978.44;;;25.00;50.31
71907;BME280;59781;52.090;5.030;2022-08-14T07:19:23;100962.38;;;25.24;49.55
71907;BME280;59781;52.090;5.030;2022-08-14T07:21:49;100958.50;;;25.25;51.18
71907;BME280;59781;52.090;5.030;2022-08-14T07:24:20;100954.06;;;25.66;48.83
71907;BME280;59781;52.090;5.030;2022-08-14T07:26:45;100973.63;;;25.65;49.17
71907;BME280;59781;52.090;5.030;2022-08-14T07:29:15;100954.69;;;25.31;48.38
71907;BME280;59781;52.090;5.030;2022-08-14T07:31:40;100958.34;;;25.42;49.48
71907;BME280;59781;52.090;5.030;2022-08-14T07:34:06;100956.72;;;25.98;48.54
71907;BME280;59781;52.090;5.030;2022-08-14T07:36:32;100949.31;;;27.67;43.98
71907;BME280;59781;52.090;5.030;2022-08-14T07:38:59;100939.50;;;28.78;40.17
71907;BME280;59781;52.090;5.030;2022-08-14T07:41:26;100940.84;;;28.52;40.82
71907;BME280;59781;52.090;5.030;2022-08-14T07:43:54;100950.06;;;28.76;40.63
71907;BME280;59781;52.090;5.030;2022-08-14T07:46:19;100939.28;;;29.62;38.85
71907;BME280;59781;52.090;5.030;2022-08-14T07:48:45;100949.72;;;29.89;38.55
71907;BME280;59781;52.090;5.030;2022-08-14T07:51:12;100951.97;;;29.15;40.20
71907;BME280;59781;52.090;5.030;2022-08-14T07:53:39;100948.03;;;29.69;38.62
71907;BME280;59781;52.090;5.030;2022-08-14T07:56:05;100945.75;;;30.38;37.32
71907;BME280;59781;52.090;5.030;2022-08-14T07:58:30;100947.13;;;29.55;38.96
71907;BME280;59781;52.090;5.030;2022-08-14T08:00:57;100943.16;;;30.04;39.14
71907;BME280;59781;52.090;5.030;2022-08-14T08:03:24;100948.19;;;30.77;36.08
71907;BME280;59781;52.090;5.030;2022-08-14T08:05:52;100941.47;;;30.08;37.98
71907;BME280;59781;52.090;5.030;2022-08-14T08:08:18;100941.56;;;30.40;37.23
71907;BME280;59781;52.090;5.030;2022-08-14T08:10:47;100943.97;;;29.85;37.65
71907;BME280;59781;52.090;5.030;2022-08-14T08:13:18;100941.75;;;28.42;40.54
71907;BME280;59781;52.090;5.030;2022-08-14T08:15:53;100935.00;;;30.50;37.30
71907;BME280;59781;52.090;5.030;2022-08-14T08:18:21;100931.91;;;31.17;35.54
71907;BME280;59781;52.090;5.030;2022-08-14T08:20:50;100933.03;;;31.48;35.34
71907;BME280;59781;52.090;5.030;2022-08-14T08:23:21;100922.38;;;31.36;34.75
71907;BME280;59781;52.090;5.030;2022-08-14T08:25:50;100915.38;;;31.80;33.90
71907;BME280;59781;52.090;5.030;2022-08-14T08:28:18;100915.06;;;31.54;34.33
71907;BME280;59781;52.090;5.030;2022-08-14T08:30:49;100906.91;;;31.99;33.88
71907;BME280;59781;52.090;5.030;2022-08-14T08:33:22;100915.50;;;31.48;34.33
71907;BME280;59781;52.090;5.030;2022-08-14T08:35:56;100903.50;;;32.38;32.67
71907;BME280;59781;52.090;5.030;2022-08-14T08:38:25;100910.16;;;32.51;31.93
71907;BME280;59781;52.090;5.030;2022-08-14T08:40:55;100919.63;;;32.28;32.74
71907;BME280;59781;52.090;5.030;2022-08-14T08:43:33;100918.75;;;33.08;31.25
71907;BME280;59781;52.090;5.030;2022-08-14T08:46:06;100920.94;;;33.20;31.30
71907;BME280;59781;52.090;5.030;2022-08-14T08:48:54;100929.28;;;32.44;32.18
71907;BME280;59781;52.090;5.030;2022-08-14T08:51:35;100927.38;;;33.29;31.39
71907;BME280;59781;52.090;5.030;2022-08-14T08:54:08;100921.25;;;32.87;30.40
71907;BME280;59781;52.090;5.030;2022-08-14T08:56:47;100921.28;;;32.51;31.86
71907;BME280;59781;52.090;5.030;2022-08-14T08:59:26;100907.63;;;33.56;31.30
71907;BME280;59781;52.090;5.030;2022-08-14T09:04:28;100907.03;;;32.75;31.83
71907;BME280;59781;52.090;5.030;2022-08-14T09:06:58;100899.19;;;32.77;31.45
71907;BME280;59781;52.090;5.030;2022-08-14T09:09:26;100902.38;;;33.55;30.58
71907;BME280;59781;52.090;5.030;2022-08-14T09:11:57;100892.47;;;34.32;29.28
71907;BME280;59781;52.090;5.030;2022-08-14T09:14:27;100888.75;;;33.62;29.39
71907;BME280;59781;52.090;5.030;2022-08-14T09:16:56;100893.50;;;33.61;29.90
71907;BME280;59781;52.090;5.030;2022-08-14T09:19:23;100895.59;;;33.38;29.97
71907;BME280;59781;52.090;5.030;2022-08-14T09:21:52;100905.13;;;33.94;30.75
71907;BME280;59781;52.090;5.030;2022-08-14T09:24:20;100897.13;;;33.22;30.94
71907;BME280;59781;52.090;5.030;2022-08-14T09:26:47;100888.84;;;34.57;28.64
71907;BME280;59781;52.090;5.030;2022-08-14T09:29:17;100890.97;;;33.91;28.54
71907;BME280;59781;52.090;5.030;2022-08-14T09:31:48;100882.69;;;33.77;28.98
71907;BME280;59781;52.090;5.030;2022-08-14T09:42:49;100881.94;;;34.11;27.42
71907;BME280;59781;52.090;5.030;2022-08-14T09:45:46;100876.97;;;34.69;27.08
71907;BME280;59781;52.090;5.030;2022-08-14T09:48:16;100876.47;;;34.67;27.46
71907;BME280;59781;52.090;5.030;2022-08-14T09:50:46;100866.38;;;35.30;26.25
71907;BME280;59781;52.090;5.030;2022-08-14T09:53:41;100862.00;;;34.73;27.58
71907;BME280;59781;52.090;5.030;2022-08-14T09:56:12;100854.44;;;34.65;28.26
71907;BME280;59781;52.090;5.030;2022-08-14T09:58:46;100854.50;;;35.03;26.93
71907;BME280;59781;52.090;5.030;2022-08-14T10:01:14;100848.06;;;35.50;27.16
71907;BME280;59781;52.090;5.030;2022-08-14T10:03:50;100849.69;;;35.51;26.72
71907;BME280;59781;52.090;5.030;2022-08-14T10:06:23;100848.81;;;34.91;28.35
71907;BME280;59781;52.090;5.030;2022-08-14T10:09:05;100833.00;;;34.78;27.93
71907;BME280;59781;52.090;5.030;2022-08-14T10:11:33;100822.75;;;35.29;27.35
71907;BME280;59781;52.090;5.030;2022-08-14T10:14:16;100829.06;;;36.18;26.61
71907;BME280;59781;52.090;5.030;2022-08-14T10:16:46;100828.22;;;36.71;25.37
71907;BME280;59781;52.090;5.030;2022-08-14T10:19:16;100825.44;;;36.38;26.09
71907;BME280;59781;52.090;5.030;2022-08-14T10:22:01;100817.13;;;35.88;26.45
71907;BME280;59781;52.090;5.030;2022-08-14T10:24:37;100813.81;;;35.44;26.26
71907;BME280;59781;52.090;5.030;2022-08-14T10:27:24;100808.50;;;35.72;26.17
71907;BME280;59781;52.090;5.030;2022-08-14T10:29:59;100808.16;;;35.74;25.87
71907;BME280;59781;52.090;5.030;2022-08-14T10:32:26;100801.97;;;35.59;26.33
71907;BME280;59781;52.090;5.030;2022-08-14T10:35:08;100800.34;;;35.29;25.08
71907;BME280;59781;52.090;5.030;2022-08-14T10:37:46;100791.94;;;35.29;25.16
71907;BME280;59781;52.090;5.030;2022-08-14T10:40:34;100799.28;;;35.72;23.70
71907;BME280;59781;52.090;5.030;2022-08-14T10:43:01;100801.13;;;36.42;24.38
71907;BME280;59781;52.090;5.030;2022-08-14T10:45:32;100797.78;;;36.28;23.52
71907;BME280;59781;52.090;5.030;2022-08-14T10:47:59;100788.69;;;36.31;22.67
71907;BME280;59781;52.090;5.030;2022-08-14T10:50:35;100790.03;;;36.13;22.69
71907;BME280;59781;52.090;5.030;2022-08-14T10:53:05;100786.28;;;36.09;23.44
71907;BME280;59781;52.090;5.030;2022-08-14T10:55:33;100784.69;;;35.78;22.33
71907;BME280;59781;52.090;5.030;2022-08-14T10:58:05;100784.25;;;36.30;21.72
71907;BME280;59781;52.090;5.030;2022-08-14T11:00:38;100780.25;;;36.76;21.78
71907;BME280;59781;52.090;5.030;2022-08-14T11:03:10;100779.72;;;36.38;21.75
71907;BME280;59781;52.090;5.030;2022-08-14T11:05:47;100789.41;;;36.07;21.99
71907;BME280;59781;52.090;5.030;2022-08-14T11:08:16;100773.72;;;35.94;22.74
71907;BME280;59781;52.090;5.030;2022-08-14T11:13:16;100773.44;;;35.66;23.13
71907;BME280;59781;52.090;5.030;2022-08-14T11:15:48;100771.69;;;36.15;22.78
71907;BME280;59781;52.090;5.030;2022-08-14T11:18:16;100779.88;;;36.66;22.42
71907;BME280;59781;52.090;5.030;2022-08-14T11:20:54;100774.88;;;36.59;21.97
71907;BME280;59781;52.090;5.030;2022-08-14T11:23:37;100775.63;;;35.60;23.17
71907;BME280;59781;52.090;5.030;2022-08-14T11:26:08;100780.13;;;35.53;23.40
71907;BME280;59781;52.090;5.030;2022-08-14T11:28:40;100769.06;;;35.56;22.90
71907;BME280;59781;52.090;5.030;2022-08-14T11:31:11;100768.66;;;36.54;23.14
71907;BME280;59781;52.090;5.030;2022-08-14T11:33:41;100765.09;;;36.32;23.45
71907;BME280;59781;52.090;5.030;2022-08-14T11:36:09;100764.81;;;36.58;22.17
71907;BME280;59781;52.090;5.030;2022-08-14T11:38:42;100772.47;;;36.37;21.57
71907;BME280;59781;52.090;5.030;2022-08-14T11:41:12;100777.34;;;35.95;22.50
71907;BME280;59781;52.090;5.030;2022-08-14T11:43:48;100783.34;;;35.63;23.20
71907;BME280;59781;52.090;5.030;2022-08-14T11:46:19;100779.72;;;35.63;22.53
71907;BME280;59781;52.090;5.030;2022-08-14T11:48:48;100773.75;;;35.85;23.72
71907;BME280;59781;52.090;5.030;2022-08-14T11:51:21;100756.91;;;35.52;21.77
71907;BME280;59781;52.090;5.030;2022-08-14T11:54:00;100767.06;;;35.78;22.40
71907;BME280;59781;52.090;5.030;2022-08-14T11:56:36;100759.13;;;36.34;21.22
71907;BME280;59781;52.090;5.030;2022-08-14T11:59:06;100768.84;;;36.36;21.25
71907;BME280;59781;52.090;5.030;2022-08-14T12:01:39;100758.66;;;35.99;21.96
71907;BME280;59781;52.090;5.030;2022-08-14T12:04:14;100750.28;;;36.56;20.57
71907;BME280;59781;52.090;5.030;2022-08-14T12:06:53;100748.44;;;36.60;20.36
71907;BME280;59781;52.090;5.030;2022-08-14T12:09:31;100743.50;;;36.45;21.49
71907;BME280;59781;52.090;5.030;2022-08-14T12:12:13;100734.28;;;35.99;22.29
71907;BME280;59781;52.090;5.030;2022-08-14T12:14:55;100739.59;;;35.71;22.32
71907;BME280;59781;52.090;5.030;2022-08-14T12:17:26;100725.19;;;36.60;21.57
71907;BME280;59781;52.090;5.030;2022-08-14T12:20:00;100723.47;;;35.89;21.21
71907;BME280;59781;52.090;5.030;2022-08-14T12:22:40;100721.91;;;35.58;20.91
71907;BME280;59781;52.090;5.030;2022-08-14T12:25:18;100715.44;;;36.45;19.73
71907;BME280;59781;52.090;5.030;2022-08-14T12:27:47;100707.66;;;36.87;19.13
71907;BME280;59781;52.090;5.030;2022-08-14T12:30:27;100694.91;;;37.02;20.55
71907;BME280;59781;52.090;5.030;2022-08-14T12:32:54;100701.75;;;37.17;17.98
71907;BME280;59781;52.090;5.030;2022-08-14T12:35:34;100695.47;;;36.95;19.19
71907;BME280;59781;52.090;5.030;2022-08-14T12:38:12;100694.66;;;36.01;20.52
71907;BME280;59781;52.090;5.030;2022-08-14T12:40:49;100691.94;;;36.37;20.57
71907;BME280;59781;52.090;5.030;2022-08-14T12:43:18;100684.59;;;36.57;19.27
71907;BME280;59781;52.090;5.030;2022-08-14T12:45:47;100688.38;;;36.16;20.11
71907;BME280;59781;52.090;5.030;2022-08-14T12:48:17;100681.22;;;36.52;20.11
71907;BME280;59781;52.090;5.030;2022-08-14T12:50:44;100687.53;;;36.85;19.74
71907;BME280;59781;52.090;5.030;2022-08-14T12:53:11;100688.53;;;36.32;21.19
71907;BME280;59781;52.090;5.030;2022-08-14T12:55:40;100683.06;;;36.35;21.63
71907;BME280;59781;52.090;5.030;2022-08-14T12:58:08;100671.19;;;36.17;22.53
71907;BME280;59781;52.090;5.030;2022-08-14T13:00:47;100669.91;;;36.15;20.46
71907;BME280;59781;52.090;5.030;2022-08-14T13:03:28;100662.75;;;36.38;19.74
71907;BME280;59781;52.090;5.030;2022-08-14T13:05:56;100665.28;;;36.31;20.22
71907;BME280;59781;52.090;5.030;2022-08-14T13:08:22;100657.00;;;35.56;21.23
71907;BME280;59781;52.090;5.030;2022-08-14T13:10:51;100660.78;;;35.94;19.84
71907;BME280;59781;52.090;5.030;2022-08-14T13:13:20;100659.41;;;35.79;20.84
71907;BME280;59781;52.090;5.030;2022-08-14T13:15:47;100655.69;;;36.32;20.15
71907;BME280;59781;52.090;5.030;2022-08-14T13:18:17;100648.72;;;36.63;20.22
71907;BME280;59781;52.090;5.030;2022-08-14T13:20:48;100657.19;;;36.17;19.84
71907;BME280;59781;52.090;5.030;2022-08-14T13:23:14;100651.63;;;36.79;18.66
71907;BME280;59781;52.090;5.030;2022-08-14T13:25:43;100645.13;;;36.05;19.32
71907;BME280;59781;52.090;5.030;2022-08-14T13:28:11;100645.63;;;35.74;19.60
71907;BME280;59781;52.090;5.030;2022-08-14T13:30:41;100636.78;;;36.66;19.61
71907;BME280;59781;52.090;5.030;2022-08-14T13:33:09;100625.56;;;36.41;19.45
71907;BME280;59781;52.090;5.030;2022-08-14T13:35:37;100628.81;;;36.31;19.63
71907;BME280;59781;52.090;5.030;2022-08-14T13:38:03;100623.78;;;36.12;19.75